createdAt,value
2019-06-01T00:00:37.954Z,87.99
2019-06-01T00:01:38.256Z,87.29
2019-06-01T00:02:38.587Z,87.93
2019-06-01T00:03:38.197Z,88.13
2019-06-01T00:04:38.663Z,87.83
2019-06-01T00:05:38.449Z,88.23
2019-06-01T00:06:38.624Z,88.74
2019-06-01T00:07:38.650Z,88.54
2019-06-01T00:08:39.777Z,88.54
2019-06-01T00:09:37.448Z,88.34
2019-06-01T00:10:37.448Z,88.48
2019-06-01T00:11:37.438Z,88.94
2019-06-01T00:12:37.430Z,88.94
2019-06-01T00:13:37.443Z,88.54
2019-06-01T00:14:37.408Z,88.94
2019-06-01T00:15:37.388Z,88.84
2019-06-01T00:16:37.374Z,88.64
2019-06-01T00:17:37.362Z,88.88
2019-06-01T00:18:37.371Z,88.84
2019-06-01T00:19:37.386Z,88.54
2019-06-01T00:20:37.327Z,88.84
2019-06-01T00:21:37.320Z,88.94
2019-06-01T00:22:37.307Z,88.74
2019-06-01T00:23:37.293Z,88.48
2019-06-01T00:24:45.891Z,88.64
2019-06-01T00:25:37.307Z,88.43
2019-06-01T00:26:37.291Z,88.43
2019-06-01T00:27:37.250Z,88.84
2019-06-01T00:28:37.239Z,88.84
2019-06-01T00:29:37.228Z,88.58
2019-06-01T00:30:37.253Z,88.94
2019-06-01T00:31:37.207Z,88.68
2019-06-01T00:32:37.199Z,88.88
2019-06-01T00:33:37.187Z,88.98
2019-06-01T00:34:37.197Z,89.08
2019-06-01T00:35:37.164Z,88.68
2019-06-01T00:36:37.155Z,88.98
2019-06-01T00:37:37.144Z,89.08
2019-06-01T00:38:37.134Z,89.18
2019-06-01T00:39:37.162Z,89.18
2019-06-01T00:40:37.108Z,89.28
2019-06-01T00:41:37.137Z,89.08
2019-06-01T00:42:37.087Z,88.98
2019-06-01T00:43:37.075Z,88.98
2019-06-01T00:44:37.065Z,89.18
2019-06-01T00:45:37.089Z,89.18
2019-06-01T00:46:37.044Z,88.88
2019-06-01T00:47:37.033Z,88.98
2019-06-01T00:48:37.043Z,89.08
2019-06-01T00:49:37.049Z,89.28
2019-06-01T00:50:37.014Z,89.08
2019-06-01T00:51:36.992Z,89.08
2019-06-01T00:52:36.984Z,89.08
2019-06-01T00:53:36.969Z,89.08
2019-06-01T00:54:36.958Z,88.68
2019-06-01T00:55:36.978Z,88.58
2019-06-01T00:56:36.935Z,88.48
2019-06-01T00:57:36.935Z,88.68
2019-06-01T00:58:36.910Z,88.68
2019-06-01T00:59:36.901Z,88.38
2019-06-01T01:00:43.636Z,88.88
2019-06-01T01:01:37.877Z,88.98
2019-06-01T01:02:36.869Z,88.48
2019-06-01T01:03:36.861Z,88.68
2019-06-01T01:04:36.878Z,88.58
2019-06-01T01:05:36.835Z,88.58
2019-06-01T01:06:36.833Z,88.58
2019-06-01T01:07:38.318Z,88.68
2019-06-01T01:08:36.803Z,88.68
2019-06-01T01:09:36.793Z,88.48
2019-06-01T01:10:36.805Z,88.78
2019-06-01T01:11:36.803Z,88.58
2019-06-01T01:12:36.761Z,88.98
2019-06-01T01:13:36.751Z,88.88
2019-06-01T01:14:36.735Z,88.78
2019-06-01T01:15:36.726Z,88.92
2019-06-01T01:16:36.763Z,88.92
2019-06-01T01:17:36.717Z,89.03
2019-06-01T01:18:36.693Z,88.92
2019-06-01T01:19:36.688Z,89.03
2019-06-01T01:20:36.669Z,88.62
2019-06-01T01:21:36.714Z,88.92
2019-06-01T01:22:36.651Z,88.82
2019-06-01T01:23:36.638Z,88.82
2019-06-01T01:24:36.627Z,88.92
2019-06-01T01:25:36.616Z,88.42
2019-06-01T01:26:36.722Z,89.03
2019-06-01T01:27:36.600Z,88.52
2019-06-01T01:28:36.588Z,89.03
2019-06-01T01:29:36.574Z,88.62
2019-06-01T01:30:36.563Z,88.52
2019-06-01T01:31:36.577Z,88.42
2019-06-01T01:32:36.579Z,88.42
2019-06-01T01:33:36.530Z,88.82
2019-06-01T01:34:36.518Z,88.42
2019-06-01T01:35:36.508Z,88.42
2019-06-01T01:36:36.501Z,88.52
2019-06-01T01:37:36.488Z,88.62
2019-06-01T01:38:36.541Z,88.62
2019-06-01T01:39:36.518Z,88.52
2019-06-01T01:40:36.451Z,88.42
2019-06-01T01:41:36.445Z,88.52
2019-06-01T01:42:36.436Z,88.32
2019-06-01T01:43:36.456Z,88.42
2019-06-01T01:44:36.409Z,88.42
2019-06-01T01:45:36.399Z,88.12
2019-06-01T01:46:36.387Z,87.92
2019-06-01T01:47:36.413Z,88.96
2019-06-01T01:48:36.368Z,88.96
2019-06-01T01:49:36.397Z,88.16
2019-06-01T01:50:36.352Z,87.85
2019-06-01T01:51:36.332Z,87.85
2019-06-01T01:52:36.360Z,87.85
2019-06-01T01:53:36.313Z,87.55
2019-06-01T01:54:36.298Z,87.96
2019-06-01T01:55:36.311Z,87.96
2019-06-01T01:56:36.280Z,87.96
2019-06-01T01:57:36.291Z,87.85
2019-06-01T01:58:36.257Z,88.16
2019-06-01T01:59:36.250Z,88.06
2019-06-01T02:00:36.235Z,88.56
2019-06-01T02:01:36.226Z,87.76
2019-06-01T02:02:36.280Z,88.06
2019-06-01T02:03:36.204Z,87.96
2019-06-01T02:04:36.191Z,87.96
2019-06-01T02:05:36.184Z,87.96
2019-06-01T02:06:36.169Z,87.96
2019-06-01T02:07:36.193Z,87.96
2019-06-01T02:08:36.146Z,88.06
2019-06-01T02:09:36.136Z,87.96
2019-06-01T02:10:36.126Z,87.76
2019-06-01T02:11:36.115Z,88.16
2019-06-01T02:12:36.141Z,88.16
2019-06-01T02:13:36.090Z,87.85
2019-06-01T02:14:36.081Z,87.76
2019-06-01T02:15:36.075Z,87.90
2019-06-01T02:16:36.065Z,87.90
2019-06-01T02:17:36.087Z,87.96
2019-06-01T02:18:36.036Z,87.85
2019-06-01T02:19:36.669Z,88.10
2019-06-01T02:20:36.014Z,87.55
2019-06-01T02:21:36.037Z,87.96
2019-06-01T02:22:35.995Z,87.70
2019-06-01T02:23:35.981Z,87.55
2019-06-01T02:24:35.973Z,87.65
2019-06-01T02:25:35.960Z,87.80
2019-06-01T02:26:36.008Z,87.85
2019-06-01T02:27:35.935Z,88.00
2019-06-01T02:28:35.924Z,87.70
2019-06-01T02:29:35.933Z,87.90
2019-06-01T02:30:35.915Z,87.70
2019-06-01T02:31:41.499Z,87.60
2019-06-01T02:32:36.880Z,87.60
2019-06-01T02:33:35.875Z,87.90
2019-06-01T02:34:35.858Z,87.49
2019-06-01T02:35:35.850Z,87.90
2019-06-01T02:36:35.840Z,87.80
2019-06-01T02:37:35.865Z,87.54
2019-06-01T02:38:35.845Z,87.94
2019-06-01T02:39:35.806Z,87.34
2019-06-01T02:40:35.795Z,87.60
2019-06-01T02:41:35.782Z,87.70
2019-06-01T02:42:35.789Z,87.70
2019-06-01T02:43:35.821Z,88.00
2019-06-01T02:44:35.750Z,87.80
2019-06-01T02:45:35.748Z,87.74
2019-06-01T02:46:36.281Z,87.40
2019-06-01T02:47:35.714Z,87.63
2019-06-01T02:48:35.741Z,87.80
2019-06-01T02:49:35.717Z,87.74
2019-06-01T02:50:35.681Z,87.63
2019-06-01T02:51:35.669Z,87.63
2019-06-01T02:52:35.664Z,87.94
2019-06-01T02:53:35.651Z,87.84
2019-06-01T02:54:35.672Z,87.94
2019-06-01T02:55:35.656Z,87.94
2019-06-01T02:56:35.639Z,87.74
2019-06-01T02:57:35.605Z,87.74
2019-06-01T02:58:35.611Z,87.74
2019-06-01T02:59:35.584Z,88.04
2019-06-01T03:00:35.607Z,87.74
2019-06-01T03:01:35.561Z,87.74
2019-06-01T03:02:35.548Z,87.84
2019-06-01T03:03:35.540Z,87.84
2019-06-01T03:04:35.526Z,87.84
2019-06-01T03:05:35.534Z,87.13
2019-06-01T03:06:35.529Z,87.43
2019-06-01T03:07:35.494Z,87.03
2019-06-01T03:08:35.484Z,87.13
2019-06-01T03:09:35.508Z,86.83
2019-06-01T03:10:35.464Z,86.63
2019-06-01T03:11:35.454Z,86.83
2019-06-01T03:12:35.972Z,87.03
2019-06-01T03:13:35.429Z,87.43
2019-06-01T03:14:35.454Z,87.23
2019-06-01T03:15:35.415Z,86.83
2019-06-01T03:16:35.434Z,86.73
2019-06-01T03:17:35.429Z,86.43
2019-06-01T03:18:35.375Z,86.93
2019-06-01T03:19:35.364Z,86.43
2019-06-01T03:20:35.353Z,86.13
2019-06-01T03:21:35.352Z,86.53
2019-06-01T03:22:35.367Z,86.43
2019-06-01T03:23:35.323Z,86.73
2019-06-01T03:24:35.308Z,87.23
2019-06-01T03:25:35.318Z,87.03
2019-06-01T03:26:35.286Z,87.48
2019-06-01T03:27:35.310Z,87.74
2019-06-01T03:28:35.267Z,86.93
2019-06-01T03:29:35.261Z,87.03
2019-06-01T03:30:35.242Z,87.54
2019-06-01T03:31:35.235Z,87.13
2019-06-01T03:32:37.403Z,86.93
2019-06-01T03:33:35.209Z,86.22
2019-06-01T03:34:35.198Z,86.02
2019-06-01T03:35:35.187Z,86.33
2019-06-01T03:36:35.184Z,86.43
2019-06-01T03:37:35.210Z,86.22
2019-06-01T03:38:35.156Z,86.13
2019-06-01T03:39:35.143Z,86.53
2019-06-01T03:40:35.136Z,86.53
2019-06-01T03:41:35.122Z,86.43
2019-06-01T03:42:35.110Z,87.23
2019-06-01T03:43:35.135Z,86.73
2019-06-01T03:44:35.089Z,87.27
2019-06-01T03:45:35.079Z,86.87
2019-06-01T03:46:35.065Z,87.07
2019-06-01T03:47:35.055Z,86.67
2019-06-01T03:48:35.090Z,86.97
2019-06-01T03:49:35.033Z,86.57
2019-06-01T03:50:35.057Z,87.18
2019-06-01T03:51:35.007Z,87.07
2019-06-01T03:52:35.036Z,86.87
2019-06-01T03:53:35.024Z,86.47
2019-06-01T03:54:34.978Z,86.53
2019-06-01T03:55:34.966Z,86.63
2019-06-01T03:56:34.957Z,87.63
2019-06-01T03:57:34.950Z,87.43
2019-06-01T03:58:34.937Z,87.63
2019-06-01T03:59:34.963Z,87.43
2019-06-01T04:00:34.911Z,87.43
2019-06-01T04:01:34.925Z,87.23
2019-06-01T04:02:34.926Z,86.43
2019-06-01T04:03:34.877Z,86.63
2019-06-01T04:04:34.870Z,85.72
2019-06-01T04:05:34.855Z,86.02
2019-06-01T04:06:34.847Z,85.92
2019-06-01T04:07:34.871Z,86.33
2019-06-01T04:08:34.824Z,86.22
2019-06-01T04:09:34.813Z,86.13
2019-06-01T04:10:34.805Z,86.13
2019-06-01T04:11:34.827Z,86.33
2019-06-01T04:12:34.778Z,85.62
2019-06-01T04:13:34.773Z,85.92
2019-06-01T04:14:34.756Z,86.13
2019-06-01T04:15:34.783Z,86.22
2019-06-01T04:16:34.741Z,86.33
2019-06-01T04:17:34.723Z,85.78
2019-06-01T04:18:34.717Z,85.78
2019-06-01T04:19:34.699Z,86.13
2019-06-01T04:20:34.728Z,85.78
2019-06-01T04:21:34.676Z,85.78
2019-06-01T04:22:34.670Z,85.72
2019-06-01T04:23:36.415Z,85.68
2019-06-01T04:24:34.647Z,85.78
2019-06-01T04:25:34.656Z,85.48
2019-06-01T04:26:34.668Z,85.72
2019-06-01T04:27:34.612Z,85.98
2019-06-01T04:28:34.604Z,85.62
2019-06-01T04:29:34.591Z,85.82
2019-06-01T04:30:34.577Z,85.62
2019-06-01T04:31:34.608Z,85.28
2019-06-01T04:32:48.857Z,85.82
2019-06-01T04:33:35.545Z,85.52
2019-06-01T04:34:35.781Z,86.02
2019-06-01T04:35:34.523Z,86.33
2019-06-01T04:36:34.516Z,85.86
2019-06-01T04:37:34.536Z,85.76
2019-06-01T04:38:34.497Z,85.66
2019-06-01T04:39:34.482Z,86.07
2019-06-01T04:40:34.474Z,86.33
2019-06-01T04:41:34.461Z,86.33
2019-06-01T04:42:34.484Z,86.02
2019-06-01T04:43:34.438Z,86.22
2019-06-01T04:44:34.424Z,86.22
2019-06-01T04:45:34.448Z,86.02
2019-06-01T04:46:34.406Z,86.02
2019-06-01T04:47:34.416Z,85.62
2019-06-01T04:48:34.383Z,85.72
2019-06-01T04:49:34.375Z,85.62
2019-06-01T04:50:34.361Z,85.52
2019-06-01T04:51:34.440Z,85.48
2019-06-01T04:52:34.337Z,84.97
2019-06-01T04:53:34.359Z,86.08
2019-06-01T04:54:34.319Z,85.98
2019-06-01T04:55:34.302Z,85.78
2019-06-01T04:56:34.296Z,85.34
2019-06-01T04:57:34.302Z,84.53
2019-06-01T04:58:34.312Z,84.09
2019-06-01T04:59:37.221Z,84.49
2019-06-01T05:00:34.248Z,83.99
2019-06-01T05:01:34.235Z,83.79
2019-06-01T05:02:34.229Z,83.69
2019-06-01T05:03:34.259Z,83.84
2019-06-01T05:04:34.215Z,82.14
2019-06-01T05:05:34.197Z,82.24
2019-06-01T05:06:34.183Z,82.64
2019-06-01T05:07:34.178Z,82.84
2019-06-01T05:08:34.229Z,82.98
2019-06-01T05:09:34.153Z,82.14
2019-06-01T05:10:34.138Z,82.54
2019-06-01T05:11:34.129Z,82.84
2019-06-01T05:12:34.116Z,82.94
2019-06-01T05:13:34.106Z,81.90
2019-06-01T05:14:34.149Z,82.06
2019-06-01T05:15:34.084Z,81.46
2019-06-01T05:16:34.073Z,81.76
2019-06-01T05:17:34.063Z,80.55
2019-06-01T05:18:34.053Z,80.15
2019-06-01T05:19:34.101Z,80.75
2019-06-01T05:20:34.029Z,79.94
2019-06-01T05:21:34.018Z,80.55
2019-06-01T05:22:34.037Z,79.74
2019-06-01T05:23:33.995Z,79.74
2019-06-01T05:24:33.989Z,80.15
2019-06-01T05:25:34.011Z,79.94
2019-06-01T05:26:33.967Z,80.75
2019-06-01T05:27:33.952Z,80.25
2019-06-01T05:28:33.947Z,80.55
2019-06-01T05:29:33.929Z,80.55
2019-06-01T05:30:33.941Z,80.51
2019-06-01T05:31:33.908Z,80.31
2019-06-01T05:32:33.899Z,81.01
2019-06-01T05:33:37.603Z,80.91
2019-06-01T05:34:33.876Z,81.01
2019-06-01T05:35:33.902Z,80.68
2019-06-01T05:36:33.856Z,78.90
2019-06-01T05:37:33.844Z,79.30
2019-06-01T05:38:33.842Z,79.47
2019-06-01T05:39:33.822Z,79.47
2019-06-01T05:40:33.818Z,80.07
2019-06-01T05:41:33.847Z,79.57
2019-06-01T05:42:33.797Z,80.37
2019-06-01T05:43:33.775Z,80.13
2019-06-01T05:44:33.787Z,79.13
2019-06-01T05:45:33.778Z,78.33
2019-06-01T05:46:33.776Z,79.03
2019-06-01T05:47:33.735Z,79.03
2019-06-01T05:48:33.729Z,79.33
2019-06-01T05:49:33.712Z,79.13
2019-06-01T05:50:33.705Z,79.43
2019-06-01T05:51:33.690Z,79.43
2019-06-01T05:52:33.700Z,78.83
2019-06-01T05:53:33.666Z,78.53
2019-06-01T05:54:33.662Z,78.22
2019-06-01T05:55:33.651Z,78.33
2019-06-01T05:56:33.635Z,78.22
2019-06-01T05:57:33.648Z,77.72
2019-06-01T05:58:33.624Z,77.89
2019-06-01T05:59:33.602Z,77.99
2019-06-01T06:00:33.594Z,77.28
2019-06-01T06:01:33.592Z,77.09
2019-06-01T06:02:33.611Z,76.78
2019-06-01T06:03:40.402Z,76.52
2019-06-01T06:04:34.544Z,76.52
2019-06-01T06:05:33.537Z,76.42
2019-06-01T06:06:33.538Z,76.82
2019-06-01T06:07:33.517Z,77.72
2019-06-01T06:08:33.535Z,77.72
2019-06-01T06:09:33.496Z,77.92
2019-06-01T06:10:33.488Z,77.32
2019-06-01T06:11:33.474Z,76.92
2019-06-01T06:12:33.461Z,77.62
2019-06-01T06:13:33.454Z,76.92
2019-06-01T06:14:33.482Z,76.62
2019-06-01T06:15:33.431Z,76.72
2019-06-01T06:16:33.469Z,77.02
2019-06-01T06:17:33.411Z,76.62
2019-06-01T06:18:33.399Z,76.92
2019-06-01T06:19:33.425Z,77.42
2019-06-01T06:20:33.394Z,77.42
2019-06-01T06:21:33.366Z,77.02
2019-06-01T06:22:33.354Z,77.02
2019-06-01T06:23:33.350Z,77.02
2019-06-01T06:24:41.448Z,76.72
2019-06-01T06:25:35.626Z,76.62
2019-06-01T06:26:33.313Z,76.42
2019-06-01T06:27:33.308Z,76.62
2019-06-01T06:28:33.292Z,76.52
2019-06-01T06:29:33.319Z,76.42
2019-06-01T06:30:33.271Z,76.98
2019-06-01T06:31:33.270Z,76.38
2019-06-01T06:32:33.249Z,76.18
2019-06-01T06:33:36.682Z,76.68
2019-06-01T06:34:33.248Z,76.38
2019-06-01T06:35:33.217Z,75.48
2019-06-01T06:36:33.204Z,76.08
2019-06-01T06:37:34.522Z,75.58
2019-06-01T06:38:34.032Z,74.98
2019-06-01T06:39:33.234Z,74.98
2019-06-01T06:40:33.164Z,75.18
2019-06-01T06:41:33.153Z,74.84
2019-06-01T06:42:33.145Z,74.14
2019-06-01T06:43:33.493Z,74.54
2019-06-01T06:44:33.173Z,74.74
2019-06-01T06:45:33.123Z,73.84
2019-06-01T06:46:33.111Z,74.01
2019-06-01T06:47:33.090Z,74.01
2019-06-01T06:48:33.131Z,73.90
2019-06-01T06:49:33.067Z,72.66
2019-06-01T06:50:33.058Z,72.36
2019-06-01T06:51:33.047Z,72.27
2019-06-01T06:52:33.037Z,72.13
2019-06-01T06:53:35.201Z,71.39
2019-06-01T06:54:33.075Z,70.59
2019-06-01T06:55:32.999Z,70.89
2019-06-01T06:56:32.992Z,71.16
2019-06-01T06:57:32.983Z,69.46
2019-06-01T06:58:33.010Z,69.53
2019-06-01T06:59:32.957Z,69.62
2019-06-01T07:00:32.981Z,69.12
2019-06-01T07:01:32.945Z,69.43
2019-06-01T07:02:32.924Z,69.32
2019-06-01T07:03:32.912Z,69.53
2019-06-01T07:04:33.006Z,69.32
2019-06-01T07:05:32.899Z,69.53
2019-06-01T07:06:32.880Z,69.53
2019-06-01T07:07:32.868Z,69.53
2019-06-01T07:08:32.886Z,69.53
2019-06-01T07:09:32.850Z,69.59
2019-06-01T07:10:32.857Z,69.29
2019-06-01T07:11:32.828Z,68.49
2019-06-01T07:12:32.830Z,67.83
2019-06-01T07:13:32.818Z,67.13
2019-06-01T07:14:32.852Z,67.23
2019-06-01T07:15:32.826Z,67.23
2019-06-01T07:16:32.773Z,66.00
2019-06-01T07:17:32.785Z,66.20
2019-06-01T07:18:32.759Z,65.77
2019-06-01T07:19:32.802Z,65.53
2019-06-01T07:20:32.739Z,63.54
2019-06-01T07:21:32.719Z,63.94
2019-06-01T07:22:32.710Z,63.64
2019-06-01T07:23:32.707Z,63.48
2019-06-01T07:24:32.690Z,62.75
2019-06-01T07:25:33.019Z,61.40
2019-06-01T07:26:32.729Z,59.52
2019-06-01T07:27:32.659Z,55.94
2019-06-01T07:28:32.642Z,54.64
2019-06-01T07:29:32.651Z,52.06
2019-06-01T07:30:49.462Z,49.62
2019-06-01T07:31:33.664Z,47.19
2019-06-01T07:32:32.921Z,45.47
2019-06-01T07:33:32.778Z,46.81
2019-06-01T07:34:41.249Z,46.62
2019-06-01T07:35:33.575Z,46.30
2019-06-01T07:36:32.824Z,44.78
2019-06-01T07:37:32.776Z,44.62
2019-06-01T07:38:33.242Z,42.39
2019-06-01T07:39:33.518Z,40.68
2019-06-01T07:40:32.998Z,40.31
2019-06-01T07:41:33.081Z,40.90
2019-06-01T07:42:33.199Z,40.43
2019-06-01T07:43:33.258Z,38.81
2019-06-01T07:44:33.407Z,37.67
2019-06-01T07:45:35.368Z,38.14
2019-06-01T07:46:33.229Z,37.22
2019-06-01T07:47:33.995Z,37.06
2019-06-01T07:48:33.460Z,38.80
2019-06-01T07:49:32.421Z,39.22
2019-06-01T07:50:32.466Z,38.90
2019-06-01T07:51:32.401Z,40.01
2019-06-01T07:52:32.482Z,39.51
2019-06-01T07:53:32.384Z,38.16
2019-06-01T07:54:32.720Z,35.97
2019-06-01T07:55:32.415Z,37.54
2019-06-01T07:56:32.854Z,40.66
2019-06-01T07:57:32.342Z,40.66
2019-06-01T07:58:32.927Z,39.15
2019-06-01T07:59:32.607Z,38.90
2019-06-01T08:00:33.170Z,37.96
2019-06-01T08:01:32.898Z,36.60
2019-06-01T08:02:33.115Z,35.39
2019-06-01T08:03:34.838Z,34.40
2019-06-01T08:04:51.898Z,34.48
2019-06-01T08:05:33.318Z,32.70
2019-06-01T08:06:32.848Z,33.54
2019-06-01T08:07:32.246Z,33.04
2019-06-01T08:08:32.289Z,33.31
2019-06-01T08:09:32.233Z,31.70
2019-06-01T08:10:32.269Z,32.92
2019-06-01T08:11:34.645Z,34.16
2019-06-01T08:12:32.202Z,34.73
2019-06-01T08:13:35.341Z,32.63
2019-06-01T08:14:32.845Z,32.97
2019-06-01T08:15:32.242Z,31.60
2019-06-01T08:16:32.175Z,31.77
2019-06-01T08:17:32.279Z,33.02
2019-06-01T08:18:32.334Z,33.39
2019-06-01T08:19:32.131Z,33.31
2019-06-01T08:20:32.319Z,34.08
2019-06-01T08:21:32.425Z,32.71
2019-06-01T08:22:32.197Z,33.18
2019-06-01T08:23:32.507Z,32.49
2019-06-01T08:24:32.422Z,31.40
2019-06-01T08:25:32.774Z,31.74
2019-06-01T08:26:32.699Z,31.89
2019-06-01T08:27:32.644Z,30.41
2019-06-01T08:28:32.741Z,30.86
2019-06-01T08:29:32.854Z,29.94
2019-06-01T08:30:32.705Z,29.83
2019-06-01T08:31:33.538Z,29.61
2019-06-01T08:32:32.877Z,29.81
2019-06-01T08:33:34.649Z,29.71
2019-06-01T08:34:33.136Z,29.41
2019-06-01T08:35:33.011Z,30.55
2019-06-01T08:36:33.750Z,29.36
2019-06-01T08:37:32.037Z,30.35
2019-06-01T08:38:32.024Z,30.44
2019-06-01T08:39:31.951Z,29.84
2019-06-01T08:40:31.941Z,30.32
2019-06-01T08:41:31.932Z,30.88
2019-06-01T08:42:32.027Z,29.90
2019-06-01T08:43:31.917Z,30.07
2019-06-01T08:44:31.951Z,27.96
2019-06-01T08:45:36.099Z,29.03
2019-06-01T08:46:33.985Z,28.85
2019-06-01T08:47:32.039Z,28.94
2019-06-01T08:48:32.050Z,29.13
2019-06-01T08:49:32.464Z,28.96
2019-06-01T08:50:32.059Z,29.38
2019-06-01T08:51:32.119Z,29.60
2019-06-01T08:52:32.237Z,29.98
2019-06-01T08:53:32.319Z,29.71
2019-06-01T08:54:32.306Z,30.72
2019-06-01T08:55:32.297Z,32.23
2019-06-01T08:56:32.314Z,30.82
2019-06-01T08:57:32.626Z,30.32
2019-06-01T08:58:32.485Z,31.13
2019-06-01T08:59:32.582Z,30.72
2019-06-01T09:00:32.644Z,31.01
2019-06-01T09:01:32.748Z,31.11
2019-06-01T09:02:32.783Z,31.24
2019-06-01T09:03:31.956Z,31.49
2019-06-01T09:04:32.739Z,32.57
2019-06-01T09:05:33.014Z,32.34
2019-06-01T09:06:32.839Z,32.40
2019-06-01T09:07:31.705Z,32.40
2019-06-01T09:08:33.147Z,31.41
2019-06-01T09:09:31.682Z,32.00
2019-06-01T09:10:31.672Z,32.35
2019-06-01T09:11:31.659Z,29.69
2019-06-01T09:12:31.652Z,30.74
2019-06-01T09:13:31.674Z,29.66
2019-06-01T09:14:31.636Z,29.13
2019-06-01T09:15:31.624Z,30.07
2019-06-01T09:16:31.684Z,29.08
2019-06-01T09:17:31.673Z,28.77
2019-06-01T09:18:31.628Z,28.07
2019-06-01T09:19:31.659Z,26.45
2019-06-01T09:20:35.329Z,26.93
2019-06-01T09:21:33.568Z,27.70
2019-06-01T09:22:31.664Z,27.14
2019-06-01T09:23:31.692Z,26.97
2019-06-01T09:24:31.921Z,28.05
2019-06-01T09:25:31.798Z,28.26
2019-06-01T09:26:32.012Z,29.08
2019-06-01T09:27:32.010Z,30.02
2019-06-01T09:28:31.919Z,31.88
2019-06-01T09:29:32.118Z,33.28
2019-06-01T09:30:32.093Z,31.87
2019-06-01T09:31:32.412Z,30.72
2019-06-01T09:32:32.203Z,30.00
2019-06-01T09:33:32.231Z,29.01
2019-06-01T09:34:32.425Z,29.16
2019-06-01T09:35:50.134Z,28.76
2019-06-01T09:36:32.568Z,28.62
2019-06-01T09:37:32.478Z,28.09
2019-06-01T09:38:31.681Z,27.11
2019-06-01T09:39:31.491Z,26.10
2019-06-01T09:40:32.214Z,26.28
2019-06-01T09:41:32.503Z,25.03
2019-06-01T09:42:33.255Z,25.52
2019-06-01T09:43:31.402Z,25.73
2019-06-01T09:44:31.936Z,26.03
2019-06-01T09:45:32.826Z,26.93
2019-06-01T09:46:32.274Z,26.55
2019-06-01T09:47:31.352Z,27.03
2019-06-01T09:48:31.502Z,27.45
2019-06-01T09:49:32.605Z,27.73
2019-06-01T09:50:31.416Z,27.82
2019-06-01T09:51:31.469Z,27.45
2019-06-01T09:52:31.412Z,27.06
2019-06-01T09:53:32.532Z,27.49
2019-06-01T09:54:32.706Z,28.59
2019-06-01T09:55:32.606Z,30.33
2019-06-01T09:56:33.486Z,30.52
2019-06-01T09:57:31.987Z,30.50
2019-06-01T09:58:32.235Z,31.40
2019-06-01T09:59:31.945Z,30.00
2019-06-01T10:00:32.356Z,29.82
2019-06-01T10:01:32.394Z,29.58
2019-06-01T10:02:32.094Z,29.37
2019-06-01T10:03:32.481Z,28.65
2019-06-01T10:04:32.290Z,28.50
2019-06-01T10:05:32.349Z,29.60
2019-06-01T10:06:32.445Z,29.62
2019-06-01T10:07:31.192Z,31.71
2019-06-01T10:08:32.616Z,30.69
2019-06-01T10:09:31.559Z,29.34
2019-06-01T10:10:31.849Z,28.04
2019-06-01T10:11:32.508Z,26.84
2019-06-01T10:12:31.893Z,27.28
2019-06-01T10:13:32.928Z,27.66
2019-06-01T10:14:32.137Z,27.46
2019-06-01T10:15:32.414Z,26.65
2019-06-01T10:16:32.464Z,26.55
2019-06-01T10:17:33.168Z,27.35
2019-06-01T10:18:32.592Z,27.44
2019-06-01T10:19:31.096Z,27.14
2019-06-01T10:20:31.153Z,27.80
2019-06-01T10:21:32.062Z,26.73
2019-06-01T10:22:31.076Z,26.66
2019-06-01T10:23:32.357Z,26.46
2019-06-01T10:24:31.179Z,28.08
2019-06-01T10:25:32.296Z,29.40
2019-06-01T10:26:31.421Z,30.83
2019-06-01T10:27:32.376Z,30.75
2019-06-01T10:28:31.534Z,32.02
2019-06-01T10:29:32.470Z,31.64
2019-06-01T10:30:31.651Z,32.18
2019-06-01T10:31:31.021Z,32.67
2019-06-01T10:32:32.484Z,33.18
2019-06-01T10:33:30.991Z,33.72
2019-06-01T10:34:31.523Z,34.44
2019-06-01T10:35:31.008Z,35.25
2019-06-01T10:36:31.915Z,36.37
2019-06-01T10:37:31.384Z,36.47
2019-06-01T10:38:31.163Z,36.90
2019-06-01T10:39:31.235Z,37.80
2019-06-01T10:40:31.292Z,37.09
2019-06-01T10:41:31.225Z,36.32
2019-06-01T10:42:32.707Z,37.54
2019-06-01T10:43:31.454Z,38.18
2019-06-01T10:44:31.580Z,38.28
2019-06-01T10:45:31.768Z,39.15
2019-06-01T10:46:31.851Z,38.97
2019-06-01T10:47:40.130Z,38.79
2019-06-01T10:48:32.709Z,39.39
2019-06-01T10:49:31.837Z,39.18
2019-06-01T10:50:32.829Z,39.48
2019-06-01T10:51:32.058Z,39.86
2019-06-01T10:52:31.987Z,40.03
2019-06-01T10:53:31.964Z,39.74
2019-06-01T10:54:32.772Z,38.74
2019-06-01T10:55:31.968Z,38.82
2019-06-01T10:56:32.200Z,39.68
2019-06-01T10:57:32.234Z,38.29
2019-06-01T10:58:30.773Z,38.70
2019-06-01T10:59:30.760Z,37.95
2019-06-01T11:00:39.839Z,39.47
2019-06-01T11:01:34.108Z,40.05
2019-06-01T11:02:30.744Z,40.74
2019-06-01T11:03:30.709Z,40.03
2019-06-01T11:04:30.697Z,41.11
2019-06-01T11:05:30.729Z,38.97
2019-06-01T11:06:37.673Z,40.27
2019-06-01T11:07:32.742Z,40.37
2019-06-01T11:08:30.664Z,40.17
2019-06-01T11:09:30.682Z,40.55
2019-06-01T11:10:30.639Z,40.45
2019-06-01T11:11:30.626Z,39.47
2019-06-01T11:12:30.661Z,40.72
2019-06-01T11:13:30.607Z,39.05
2019-06-01T11:14:30.599Z,39.34
2019-06-01T11:15:30.583Z,39.05
2019-06-01T11:16:30.575Z,39.17
2019-06-01T11:17:30.596Z,39.94
2019-06-01T11:18:30.553Z,40.53
2019-06-01T11:19:30.576Z,39.52
2019-06-01T11:20:31.163Z,39.82
2019-06-01T11:21:30.528Z,39.13
2019-06-01T11:22:30.544Z,39.13
2019-06-01T11:23:30.502Z,39.92
2019-06-01T11:24:30.489Z,40.23
2019-06-01T11:25:30.528Z,38.95
2019-06-01T11:26:30.677Z,39.25
2019-06-01T11:27:30.457Z,40.35
2019-06-01T11:28:30.700Z,40.27
2019-06-01T11:29:30.439Z,40.96
2019-06-01T11:30:30.428Z,39.09
2019-06-01T11:31:30.474Z,39.26
2019-06-01T11:32:30.417Z,39.18
2019-06-01T11:33:30.434Z,39.79
2019-06-01T11:34:30.391Z,41.59
2019-06-01T11:35:30.370Z,40.78
2019-06-01T11:36:30.361Z,40.98
2019-06-01T11:37:30.352Z,40.29
2019-06-01T11:38:30.376Z,40.09
2019-06-01T11:39:30.374Z,41.27
2019-06-01T11:40:30.341Z,40.58
2019-06-01T11:41:30.326Z,40.48
2019-06-01T11:42:30.303Z,39.42
2019-06-01T11:43:30.290Z,40.11
2019-06-01T11:44:30.278Z,40.41
2019-06-01T11:45:30.308Z,40.51
2019-06-01T11:46:30.259Z,40.51
2019-06-01T11:47:30.251Z,40.43
2019-06-01T11:48:30.239Z,40.84
2019-06-01T11:49:30.231Z,40.86
2019-06-01T11:50:30.260Z,40.56
2019-06-01T11:51:30.207Z,41.06
2019-06-01T11:52:30.193Z,41.16
2019-06-01T11:53:30.186Z,41.06
2019-06-01T11:54:30.173Z,41.04
2019-06-01T11:55:30.207Z,40.64
2019-06-01T11:56:30.150Z,40.15
2019-06-01T11:57:30.143Z,40.76
2019-06-01T11:58:30.128Z,40.84
2019-06-01T11:59:30.120Z,40.35
2019-06-01T12:00:30.145Z,40.84
2019-06-01T12:01:30.097Z,41.24
2019-06-01T12:02:30.087Z,40.96
2019-06-01T12:03:30.077Z,41.04
2019-06-01T12:04:30.063Z,40.74
2019-06-01T12:05:30.279Z,40.35
2019-06-01T12:06:30.044Z,40.53
2019-06-01T12:07:30.034Z,39.36
2019-06-01T12:08:33.992Z,40.25
2019-06-01T12:09:30.021Z,40.05
2019-06-01T12:10:30.685Z,39.46
2019-06-01T12:11:29.990Z,39.78
2019-06-01T12:12:29.979Z,40.19
2019-06-01T12:13:29.972Z,40.48
2019-06-01T12:14:30.739Z,40.58
2019-06-01T12:15:29.968Z,41.67
2019-06-01T12:16:30.003Z,41.25
2019-06-01T12:17:29.935Z,40.56
2019-06-01T12:18:29.914Z,40.37
2019-06-01T12:19:29.904Z,40.86
2019-06-01T12:20:29.894Z,40.07
2019-06-01T12:21:29.926Z,41.06
2019-06-01T12:22:29.875Z,40.66
2019-06-01T12:23:29.863Z,40.76
2019-06-01T12:24:29.872Z,40.35
2019-06-01T12:25:29.882Z,41.83
2019-06-01T12:26:29.831Z,39.56
2019-06-01T12:27:29.828Z,39.95
2019-06-01T12:28:29.811Z,39.95
2019-06-01T12:29:29.839Z,40.58
2019-06-01T12:30:29.792Z,40.48
2019-06-01T12:31:29.787Z,40.48
2019-06-01T12:32:29.887Z,40.78
2019-06-01T12:33:29.759Z,41.87
2019-06-01T12:34:29.795Z,41.77
2019-06-01T12:35:29.817Z,40.90
2019-06-01T12:36:29.894Z,41.91
2019-06-01T12:37:45.695Z,41.31
2019-06-01T12:38:30.713Z,41.41
2019-06-01T12:39:29.711Z,40.62
2019-06-01T12:40:29.688Z,39.54
2019-06-01T12:41:29.683Z,40.23
2019-06-01T12:42:29.670Z,40.31
2019-06-01T12:43:29.677Z,40.31
2019-06-01T12:44:29.645Z,40.48
2019-06-01T12:45:29.632Z,41.28
2019-06-01T12:46:29.621Z,40.39
2019-06-01T12:47:29.614Z,40.98
2019-06-01T12:48:29.637Z,39.68
2019-06-01T12:49:29.603Z,39.18
2019-06-01T12:50:29.580Z,40.37
2019-06-01T12:51:29.574Z,39.48
2019-06-01T12:52:29.559Z,39.28